Time;durP1;ratioP1;P1;durP2;ratioP2;P2;SDS_P1;SDS_P2;PMS_P1;PMS_P2;Temp;Humidity;BMP_temperature;BMP_pressure;BME280_temperature;BME280_humidity;BME280_pressure;Samples;Min_cycle;Max_cycle;Signal;HPM_P1;HPM_P2
2021/11/16 00:01:05;;;;;;;38.20;20.10;;;;;;;5.92;78.67;99812.94;215041;1322;25943;-74
2021/11/16 00:06:08;;;;;;;36.90;20.30;;;;;;;5.84;79.11;99808.94;214877;1316;22676;-73
2021/11/16 00:11:10;;;;;;;34.80;20.60;;;;;;;5.83;79.06;99812.21;215062;1319;25329;-75
2021/11/16 00:16:14;;;;;;;39.70;21.60;;;;;;;5.87;79.30;99813.40;215035;1321;25349;-75
2021/11/16 00:21:19;;;;;;;40.50;21.10;;;;;;;5.95;79.49;99816.15;214855;1322;25262;-76
2021/11/16 00:26:22;;;;;;;39.90;21.90;;;;;;;6.01;79.09;99810.61;214760;1316;25297;-75
2021/11/16 00:31:24;;;;;;;40.30;21.80;;;;;;;6.05;79.51;99818.20;214955;1322;22525;-75
2021/11/16 00:36:28;;;;;;;37.70;20.70;;;;;;;6.06;79.08;99826.92;214731;1321;25358;-74
2021/11/16 00:41:31;;;;;;;39.00;21.80;;;;;;;6.06;78.94;99830.29;214880;1317;22651;-74
2021/11/16 00:46:33;;;;;;;36.20;20.00;;;;;;;6.05;78.93;99828.04;214746;1321;22644;-75
2021/11/16 00:51:36;;;;;;;38.00;22.30;;;;;;;6.07;78.96;99829.20;214504;1322;24049;-74
2021/11/16 00:56:39;;;;;;;42.00;23.70;;;;;;;6.05;78.68;99827.67;214677;1320;22739;-75
2021/11/16 01:01:41;;;;;;;39.90;22.50;;;;;;;6.09;78.97;99827.33;214851;1320;22769;-75
2021/11/16 01:06:44;;;;;;;39.30;21.90;;;;;;;6.14;79.16;99825.80;214933;1322;22853;-74
2021/11/16 01:11:47;;;;;;;38.60;21.40;;;;;;;6.19;79.37;99820.30;214895;1320;25488;-74
2021/11/16 01:16:51;;;;;;;38.20;23.10;;;;;;;6.22;79.20;99823.61;214881;1321;23104;-74
2021/11/16 01:21:55;;;;;;;41.90;23.10;;;;;;;6.21;78.99;99817.36;215001;1316;25233;-75
2021/11/16 01:26:57;;;;;;;41.00;22.30;;;;;;;6.21;78.97;99818.97;214920;1320;26043;-75
2021/11/16 01:32:00;;;;;;;45.10;25.20;;;;;;;6.20;78.98;99817.83;214934;1322;22532;-75
2021/11/16 01:37:03;;;;;;;50.40;24.90;;;;;;;6.20;79.14;99814.76;215204;1320;25393;-75
2021/11/16 01:42:07;;;;;;;37.00;21.10;;;;;;;6.22;79.08;99802.44;214913;1320;22692;-75
2021/11/16 01:47:10;;;;;;;45.60;23.90;;;;;;;6.18;78.65;99792.77;215123;1321;25410;-75
2021/11/16 01:52:13;;;;;;;46.80;25.10;;;;;;;6.19;79.07;99789.81;214948;1317;25413;-75
2021/11/16 01:57:16;;;;;;;37.80;21.10;;;;;;;6.23;79.00;99791.08;215029;1316;24702;-74
2021/11/16 02:02:18;;;;;;;44.10;23.10;;;;;;;6.22;78.76;99791.27;215159;1319;23077;-75
2021/11/16 02:07:21;;;;;;;41.60;23.00;;;;;;;6.22;78.97;99787.92;214512;1322;22856;-74
2021/11/16 02:12:23;;;;;;;43.70;23.60;;;;;;;6.24;78.96;99785.94;215013;1320;22645;-75
2021/11/16 02:17:26;;;;;;;42.10;24.50;;;;;;;6.25;79.01;99792.13;214928;1321;22635;-75
2021/11/16 02:22:29;;;;;;;43.20;23.40;;;;;;;6.26;78.87;99794.10;215293;1316;22616;-74
2021/11/16 02:27:32;;;;;;;47.30;23.30;;;;;;;6.26;78.83;99791.55;215202;1321;25355;-74
2021/11/16 02:32:34;;;;;;;44.40;24.20;;;;;;;6.26;78.97;99789.34;215122;1316;25220;-74
2021/11/16 02:37:43;;;;;;;48.70;25.80;;;;;;;6.27;78.79;99779.78;215076;1320;22500;-74
2021/11/16 02:42:46;;;;;;;47.20;25.60;;;;;;;6.29;79.26;99776.08;215114;1320;25511;-74
2021/11/16 02:47:49;;;;;;;49.60;25.00;;;;;;;6.27;78.92;99771.47;215139;1317;25275;-74
2021/11/16 02:52:52;;;;;;;44.90;24.00;;;;;;;6.22;78.99;99767.48;214950;1316;25382;-74
2021/11/16 02:57:55;;;;;;;50.00;25.30;;;;;;;6.24;79.29;99758.69;215052;1319;22719;-74
2021/11/16 03:02:58;;;;;;;53.40;27.00;;;;;;;6.22;79.16;99754.29;215267;1321;25927;-74
2021/11/16 03:08:10;;;;;;;53.80;26.90;;;;;;;6.21;79.17;99753.25;215067;1320;25385;-74
2021/11/16 03:13:15;;;;;;;54.10;27.10;;;;;;;6.21;79.24;99755.96;215074;1313;25338;-75
2021/11/16 03:18:21;;;;;;;56.50;27.90;;;;;;;6.17;79.45;99754.02;214884;1322;22640;-75
2021/11/16 03:23:25;;;;;;;60.50;29.80;;;;;;;6.15;79.70;99750.58;215266;1322;22642;-75
2021/11/16 03:28:32;;;;;;;57.30;27.80;;;;;;;6.15;79.82;99743.66;215086;1317;25242;-75
2021/11/16 03:33:36;;;;;;;60.70;28.20;;;;;;;6.14;79.65;99745.93;215290;1319;22520;-75
2021/11/16 03:38:41;;;;;;;59.30;28.60;;;;;;;6.14;79.89;99746.35;215414;1313;24311;-75
2021/11/16 03:43:44;;;;;;;63.20;29.90;;;;;;;6.18;80.36;99747.13;215114;1316;22632;-75
2021/11/16 03:48:47;;;;;;;64.20;29.10;;;;;;;6.21;80.33;99743.08;215115;1321;22607;-75
2021/11/16 03:53:50;;;;;;;63.50;29.00;;;;;;;6.26;80.10;99745.21;215047;1321;22643;-75
2021/11/16 03:58:53;;;;;;;69.10;31.00;;;;;;;6.27;80.06;99744.16;214945;1320;25245;-74
2021/11/16 04:03:58;;;;;;;66.50;30.50;;;;;;;6.28;80.54;99748.81;214944;1322;25445;-75
2021/11/16 04:09:03;;;;;;;68.10;31.50;;;;;;;6.31;80.11;99748.09;215239;1321;25358;-74
2021/11/16 04:14:07;;;;;;;70.60;31.60;;;;;;;6.33;80.69;99742.36;215136;1321;22709;-74
2021/11/16 04:19:10;;;;;;;67.40;31.50;;;;;;;6.33;80.42;99734.80;215079;1320;25341;-75
2021/11/16 04:24:13;;;;;;;68.00;30.20;;;;;;;6.30;80.39;99730.44;215142;1316;25465;-75
2021/11/16 04:29:15;;;;;;;68.30;30.10;;;;;;;6.29;80.73;99728.98;215283;1314;22746;-75
2021/11/16 04:34:18;;;;;;;72.80;32.50;;;;;;;6.30;80.71;99725.32;215300;1321;22765;-75
2021/11/16 04:39:20;;;;;;;76.90;32.50;;;;;;;6.30;80.89;99727.70;215212;1319;22829;-74
2021/11/16 04:44:30;;;;;;;70.20;31.30;;;;;;;6.34;81.13;99730.15;214714;1317;22798;-74
2021/11/16 04:49:43;;;;;;;60.20;28.10;;;;;;;6.32;80.61;99731.80;215139;1322;22636;-75
2021/11/16 04:55:22;;;;;;;56.10;26.30;;;;;;;6.24;80.64;99728.26;215393;1318;25372;-75
2021/11/16 05:05:30;;;;;;;62.90;26.30;;;;;;;6.12;80.78;99715.12;215113;1320;25355;-75
2021/11/16 05:10:33;;;;;;;54.90;26.80;;;;;;;6.09;80.87;99718.36;207411;1320;10340029;-74
2021/11/16 05:15:40;;;;;;;54.50;24.40;;;;;;;6.12;81.18;99721.51;214875;1319;23024;-75
2021/11/16 05:20:43;;;;;;;54.00;24.70;;;;;;;6.16;81.21;99723.14;215103;1316;24151;-74
2021/11/16 05:25:53;;;;;;;46.60;22.90;;;;;;;6.18;81.28;99732.02;215303;1318;23870;-75
2021/11/16 05:30:56;;;;;;;37.50;19.90;;;;;;;6.18;80.97;99736.69;214683;1320;22563;-74
2021/11/16 05:35:59;;;;;;;35.50;18.20;;;;;;;6.19;80.97;99741.60;214959;1314;25268;-75
2021/11/16 05:41:07;;;;;;;34.00;17.20;;;;;;;6.08;80.64;99742.82;214828;1316;22656;-76
2021/11/16 05:46:11;;;;;;;36.80;17.30;;;;;;;5.93;80.73;99747.59;214666;1316;24824;-75
2021/11/16 05:51:14;;;;;;;39.50;18.40;;;;;;;5.88;81.00;99754.02;215054;1313;25404;-76
2021/11/16 05:56:19;;;;;;;36.10;18.70;;;;;;;5.87;80.95;99752.68;215411;1317;25401;-75
2021/11/16 06:01:24;;;;;;;35.00;18.60;;;;;;;5.84;80.92;99758.45;215126;1316;25464;-76
2021/11/16 06:06:30;;;;;;;37.80;20.10;;;;;;;5.82;81.17;99758.52;215147;1316;25329;-75
2021/11/16 06:11:34;;;;;;;39.00;20.70;;;;;;;5.90;81.62;99760.13;214896;1319;22556;-75
2021/11/16 06:16:38;;;;;;;41.30;20.70;;;;;;;5.98;81.19;99754.95;215055;1315;22778;-75
2021/11/16 06:21:41;;;;;;;38.30;19.50;;;;;;;6.09;81.57;99748.95;214917;1318;22758;-75
2021/11/16 06:26:44;;;;;;;41.80;19.60;;;;;;;6.06;80.63;99761.89;214895;1313;25294;-75
2021/11/16 06:31:46;;;;;;;35.40;19.30;;;;;;;5.95;80.57;99769.77;215075;1316;22616;-75
2021/11/16 06:36:50;;;;;;;37.10;19.30;;;;;;;5.95;81.03;99764.89;214797;1319;22864;-75
2021/11/16 06:41:55;;;;;;;34.10;18.30;;;;;;;6.03;80.95;99767.55;214894;1316;22781;-75
2021/11/16 06:46:59;;;;;;;36.70;20.60;;;;;;;6.03;80.68;99778.52;216096;1313;22873;-76
2021/11/16 06:52:03;;;;;;;40.80;20.50;;;;;;;6.05;80.68;99778.98;215586;1313;22659;-77
2021/11/16 06:57:06;;;;;;;37.20;20.00;;;;;;;6.06;80.90;99777.67;215528;1314;25438;-76
2021/11/16 07:02:10;;;;;;;34.30;18.00;;;;;;;6.16;81.22;99776.52;216460;1313;22753;-75
2021/11/16 07:07:16;;;;;;;36.00;19.70;;;;;;;6.26;80.74;99784.31;215854;1315;25239;-76
2021/11/16 07:12:24;;;;;;;33.00;18.50;;;;;;;6.31;80.80;99786.50;215843;1315;22711;-76
2021/11/16 07:17:28;;;;;;;40.70;18.90;;;;;;;6.30;80.14;99784.94;215669;1313;22945;-75
2021/11/16 07:22:41;;;;;;;34.80;19.20;;;;;;;6.27;80.14;99778.42;215432;1316;25338;-74
2021/11/16 07:27:54;;;;;;;35.30;18.20;;;;;;;6.32;80.34;99774.65;215354;1316;22624;-74
2021/11/16 07:33:14;;;;;;;33.60;18.60;;;;;;;6.33;79.87;99775.48;215653;1316;22612;-75
2021/11/16 07:38:21;;;;;;;33.00;18.40;;;;;;;6.39;80.62;99770.74;215799;1316;22630;-76
2021/11/16 07:43:26;;;;;;;31.50;17.90;;;;;;;6.53;80.18;99770.91;215463;1316;25882;-73
2021/11/16 07:48:31;;;;;;;30.10;17.10;;;;;;;6.67;80.22;99775.65;215398;1316;22742;-74
2021/11/16 07:53:37;;;;;;;32.50;17.90;;;;;;;6.78;79.98;99773.41;215814;1313;22589;-74
2021/11/16 07:58:44;;;;;;;32.70;17.40;;;;;;;6.85;79.84;99770.64;215527;1316;25274;-75
2021/11/16 08:04:06;;;;;;;35.00;18.50;;;;;;;6.92;79.66;99771.34;215638;1317;25346;-75
2021/11/16 08:09:18;;;;;;;41.60;18.90;;;;;;;6.95;79.22;99769.63;215544;1313;24365;-75
2021/11/16 08:14:21;;;;;;;40.40;21.00;;;;;;;6.96;79.61;99764.71;215628;1315;23147;-74
2021/11/16 08:19:27;;;;;;;38.90;19.40;;;;;;;7.03;79.40;99761.15;215617;1313;25398;-74
2021/11/16 08:24:35;;;;;;;41.40;21.60;;;;;;;7.06;79.01;99760.13;215742;1315;22501;-74
2021/11/16 08:29:42;;;;;;;42.60;21.70;;;;;;;7.02;79.08;99759.60;215711;1315;22785;-75
2021/11/16 08:34:54;;;;;;;38.30;19.00;;;;;;;7.10;79.24;99757.29;215507;1316;22736;-75
2021/11/16 08:40:17;;;;;;;42.70;21.40;;;;;;;7.20;78.77;99752.86;215534;1315;23852;-79
2021/11/16 08:45:27;;;;;;;42.60;22.50;;;;;;;7.22;78.73;99755.13;216061;1316;22569;-74
2021/11/16 08:50:33;;;;;;;45.80;23.80;;;;;;;7.30;78.91;99756.38;215593;1317;22678;-75
2021/11/16 08:55:38;;;;;;;46.80;23.20;;;;;;;7.43;79.20;99757.69;215723;1315;25325;-75
2021/11/16 09:00:51;;;;;;;38.70;20.20;;;;;;;7.58;78.78;99760.59;215760;1313;25285;-75
2021/11/16 09:05:55;;;;;;;;;;;;;;;7.75;78.32;99753.63;215683;1317;25332;-75
2021/11/16 09:11:09;;;;;;;40.10;21.90;;;;;;;7.69;77.39;99756.05;215580;1316;22530;-75
2021/11/16 09:16:21;;;;;;;44.30;21.60;;;;;;;7.65;77.69;99751.71;215210;1316;25344;-75
2021/11/16 09:21:37;;;;;;;39.20;21.60;;;;;;;7.81;77.84;99750.71;215566;1316;24266;-75
2021/11/16 09:27:58;;;;;;;34.60;19.10;;;;;;;7.97;77.76;99749.27;215699;1316;22607;-75
2021/11/16 09:32:22;;;;;;;43.00;23.70;;;;;;;8.22;77.80;99747.13;215619;1315;25287;-74
2021/11/16 09:37:27;;;;;;;42.30;23.20;;;;;;;8.44;77.37;99748.52;215766;1316;22567;-74
2021/11/16 09:42:33;;;;;;;44.60;24.30;;;;;;;8.58;76.64;99740.15;216207;1316;22585;-74
2021/11/16 09:47:39;;;;;;;41.90;23.00;;;;;;;8.60;76.18;99737.02;215813;1315;22708;-74
2021/11/16 09:52:48;;;;;;;39.80;21.60;;;;;;;8.65;76.01;99727.98;215810;1316;23323;-75
2021/11/16 09:57:56;;;;;;;43.00;22.80;;;;;;;8.56;75.43;99719.08;215859;1316;25217;-75
2021/11/16 10:03:01;;;;;;;41.40;21.80;;;;;;;8.43;75.13;99713.30;215307;1315;25243;-75
2021/11/16 10:08:05;;;;;;;38.30;22.00;;;;;;;8.39;75.48;99705.15;215500;1316;22567;-75
2021/11/16 10:13:15;;;;;;;41.30;22.90;;;;;;;8.40;75.42;99698.91;215763;1316;22504;-75
2021/11/16 10:18:22;;;;;;;42.90;23.00;;;;;;;8.43;75.58;99696.00;215750;1319;23819;-75
2021/11/16 10:23:41;;;;;;;44.10;23.00;;;;;;;8.48;75.43;99687.27;215452;1315;22585;-74
2021/11/16 10:28:48;;;;;;;42.50;23.50;;;;;;;8.54;75.33;99686.37;215920;1316;22747;-74
2021/11/16 10:33:52;;;;;;;47.20;24.40;;;;;;;8.58;75.20;99670.54;215617;1316;22779;-74
2021/11/16 10:39:00;;;;;;;40.90;22.50;;;;;;;8.67;75.24;99672.77;215760;1316;25271;-74
2021/11/16 10:44:06;;;;;;;42.80;23.30;;;;;;;8.79;75.22;99676.51;215583;1316;23042;-75
2021/11/16 10:49:14;;;;;;;37.50;22.20;;;;;;;8.92;75.21;99663.68;215619;1313;22616;-75
2021/11/16 10:54:21;;;;;;;35.10;21.60;;;;;;;9.05;74.80;99659.71;215370;1316;22622;-75
2021/11/16 10:59:31;;;;;;;35.80;21.60;;;;;;;9.22;74.67;99652.39;215778;1315;22748;-75
2021/11/16 11:04:39;;;;;;;37.30;20.40;;;;;;;9.35;74.32;99646.42;215353;1316;22752;-75
2021/11/16 11:09:42;;;;;;;34.70;20.90;;;;;;;9.38;73.90;99645.91;215576;1316;23161;-75
2021/11/16 11:14:48;;;;;;;32.00;20.80;;;;;;;9.49;73.93;99639.23;215306;1315;22614;-75
2021/11/16 11:20:06;;;;;;;41.10;24.40;;;;;;;9.57;73.46;99632.37;215548;1316;22539;-76
2021/11/16 11:25:35;;;;;;;32.90;20.10;;;;;;;9.67;73.42;99621.45;215508;1316;23643;-76
2021/11/16 11:30:50;;;;;;;31.60;20.40;;;;;;;9.78;73.18;99615.66;215339;1316;22773;-76
2021/11/16 11:36:22;;;;;;;30.60;20.40;;;;;;;9.86;72.84;99615.48;215402;1315;25460;-76
2021/11/16 11:41:25;;;;;;;28.90;18.20;;;;;;;9.92;72.54;99606.23;215526;1316;22687;-76
2021/11/16 11:46:48;;;;;;;25.30;16.70;;;;;;;10.00;72.18;99604.44;215501;1320;22610;-76
2021/11/16 11:51:57;;;;;;;25.70;16.40;;;;;;;10.02;71.75;99603.90;215592;1315;22808;-76
2021/11/16 11:57:00;;;;;;;23.80;15.10;;;;;;;10.00;71.52;99594.73;215689;1319;22586;-79
2021/11/16 12:02:13;;;;;;;28.90;17.80;;;;;;;10.06;71.71;99587.15;215875;1315;25698;-77
2021/11/16 12:07:16;;;;;;;28.30;17.80;;;;;;;10.17;71.59;99579.03;215349;1316;23570;-76
2021/11/16 12:12:19;;;;;;;28.20;17.40;;;;;;;10.25;71.25;99569.78;215662;1320;25303;-75
2021/11/16 12:17:30;;;;;;;24.10;15.00;;;;;;;10.33;71.00;99571.98;215490;1316;24381;-75
2021/11/16 12:22:34;;;;;;;26.80;17.50;;;;;;;10.40;70.70;99573.41;215430;1316;25403;-75
2021/11/16 12:27:37;;;;;;;27.30;15.80;;;;;;;10.48;70.49;99563.13;215757;1317;24263;-76
2021/11/16 12:32:51;;;;;;;27.20;16.00;;;;;;;10.53;70.28;99554.77;215743;1316;22596;-75
2021/11/16 12:37:58;;;;;;;26.00;16.50;;;;;;;10.53;69.59;99548.06;215550;1316;22676;-74
2021/11/16 12:43:12;;;;;;;30.40;16.40;;;;;;;10.47;69.51;99544.42;215802;1316;23467;-74
2021/11/16 12:48:18;;;;;;;26.60;15.30;;;;;;;10.48;69.56;99534.23;215819;1319;23333;-76
2021/11/16 12:53:47;;;;;;;28.90;17.70;;;;;;;10.40;69.02;99531.19;215785;1315;25330;-72
2021/11/16 12:58:56;;;;;;;28.30;17.50;;;;;;;10.21;68.90;99529.08;215492;1320;22725;-75
2021/11/16 13:03:59;;;;;;;31.60;18.50;;;;;;;10.01;68.82;99524.23;215496;1316;22722;-75
2021/11/16 13:09:04;;;;;;;27.90;18.00;;;;;;;9.91;69.32;99523.80;215097;1319;286561;-76
2021/11/16 13:14:09;;;;;;;34.80;19.80;;;;;;;9.82;69.44;99526.61;215336;1319;25432;-74
2021/11/16 13:19:11;;;;;;;38.40;23.60;;;;;;;9.69;69.69;99524.61;215242;1319;25888;-74
2021/11/16 13:24:40;;;;;;;35.30;23.20;;;;;;;9.54;69.77;99521.20;215277;1319;22705;-74
2021/11/16 13:29:44;;;;;;;37.80;22.30;;;;;;;9.28;69.71;99517.89;215576;1318;22583;-74
2021/11/16 13:34:49;;;;;;;37.70;21.30;;;;;;;8.96;69.76;99509.02;215768;1316;22801;-75
2021/11/16 13:40:09;;;;;;;38.60;23.10;;;;;;;8.71;70.22;99501.41;215713;1319;25236;-75
2021/11/16 13:45:13;;;;;;;40.70;24.40;;;;;;;8.48;70.61;99502.48;215449;1313;22505;-76
2021/11/16 13:50:31;;;;;;;41.10;25.40;;;;;;;8.28;71.06;99501.17;215576;1320;25303;-76
2021/11/16 13:55:41;;;;;;;42.30;25.40;;;;;;;8.08;71.48;99496.92;215409;1321;22787;-76
2021/11/16 14:00:48;;;;;;;49.20;28.60;;;;;;;7.88;71.80;99497.05;215811;1320;25339;-76
2021/11/16 14:05:56;;;;;;;49.80;29.50;;;;;;;7.71;72.17;99494.39;215506;1322;22646;-76
2021/11/16 14:11:01;;;;;;;58.10;32.70;;;;;;;7.61;72.64;99492.63;215417;1317;25414;-76
2021/11/16 14:16:11;;;;;;;48.20;28.00;;;;;;;7.53;72.58;99494.69;215258;1322;25509;-76
2021/11/16 14:21:17;;;;;;;55.60;32.40;;;;;;;7.42;72.68;99488.91;215496;1317;22698;-75
2021/11/16 14:26:24;;;;;;;57.90;32.50;;;;;;;7.28;73.10;99488.11;215915;1315;22746;-75
2021/11/16 14:31:32;;;;;;;52.80;30.10;;;;;;;7.24;73.60;99484.50;215378;1318;24178;-75
2021/11/16 14:36:41;;;;;;;57.80;33.20;;;;;;;7.24;73.90;99482.58;215672;1316;23666;-75
2021/11/16 14:41:50;;;;;;;56.50;32.30;;;;;;;7.14;73.78;99479.85;216089;1314;24286;-76
2021/11/16 14:46:59;;;;;;;53.20;30.60;;;;;;;7.05;73.78;99473.88;215550;1316;22870;-76
2021/11/16 14:52:12;;;;;;;56.10;31.70;;;;;;;6.94;74.02;99473.31;215962;1313;25342;-76
2021/11/16 14:57:41;;;;;;;64.10;35.40;;;;;;;6.80;74.34;99465.89;215795;1317;22617;-75
2021/11/16 15:03:10;;;;;;;72.20;38.00;;;;;;;6.67;74.25;99465.92;215959;1314;22795;-75
2021/11/16 15:08:21;;;;;;;70.40;39.60;;;;;;;6.53;74.65;99461.84;215176;1321;25942;-76
2021/11/16 15:13:28;;;;;;;75.20;41.60;;;;;;;6.38;74.70;99459.72;214672;1322;22516;-76
2021/11/16 15:18:31;;;;;;;64.70;37.00;;;;;;;6.23;74.97;99457.30;214892;1321;25371;-76
2021/11/16 15:23:40;;;;;;;65.90;36.20;;;;;;;6.10;75.13;99453.07;215184;1321;22644;-77
2021/11/16 15:29:03;;;;;;;60.30;34.40;;;;;;;5.96;75.29;99442.13;215107;1319;25389;-76
2021/11/16 15:34:06;;;;;;;;;;;;;;;5.84;75.52;99441.50;215138;1320;22681;-75
2021/11/16 15:39:17;;;;;;;63.10;33.10;;;;;;;5.72;75.89;99443.70;214862;1322;25473;-75
2021/11/16 15:44:58;;;;;;;58.50;31.70;;;;;;;5.57;75.91;99435.52;215078;1320;23849;-75
2021/11/16 16:01:09;;;;;;;63.10;34.00;;;;;;;5.23;76.33;99420.54;214955;1321;25249;-76
2021/11/16 16:06:13;;;;;;;68.30;35.70;;;;;;;5.08;76.40;99420.58;215047;1315;25217;-75
2021/11/16 16:11:25;;;;;;;75.50;38.20;;;;;;;5.01;76.93;99421.19;214883;1322;25332;-76
2021/11/16 16:16:30;;;;;;;72.40;37.70;;;;;;;4.95;77.07;99416.77;214919;1320;25232;-76
2021/11/16 16:21:33;;;;;;;74.20;39.40;;;;;;;4.86;76.84;99406.51;214713;1322;25258;-76
2021/11/16 16:26:48;;;;;;;84.20;44.00;;;;;;;4.74;77.02;99408.92;214692;1316;25409;-76
2021/11/16 16:32:09;;;;;;;67.70;36.30;;;;;;;4.61;76.95;99405.05;215076;1320;25323;-77
2021/11/16 16:37:12;;;;;;;66.40;36.60;;;;;;;4.47;77.24;99405.92;215007;1321;22731;-77
2021/11/16 16:42:26;;;;;;;65.60;34.90;;;;;;;4.37;77.34;99403.95;214987;1316;22662;-76
2021/11/16 16:47:29;;;;;;;76.20;38.80;;;;;;;4.23;77.31;99398.92;215179;1321;23066;-76
2021/11/16 16:52:33;;;;;;;74.20;37.60;;;;;;;4.09;77.40;99390.65;215400;1318;23081;-76
2021/11/16 16:57:37;;;;;;;70.50;35.60;;;;;;;3.96;77.66;99391.10;214976;1316;24209;-76
2021/11/16 17:02:41;;;;;;;71.00;37.50;;;;;;;3.88;78.03;99387.14;215407;1321;22665;-76
2021/11/16 17:07:43;;;;;;;77.30;39.40;;;;;;;3.81;78.04;99387.23;214815;1316;22638;-76
2021/11/16 17:12:46;;;;;;;80.60;42.20;;;;;;;3.73;78.29;99382.91;215091;1321;22582;-75
2021/11/16 17:17:50;;;;;;;78.90;41.20;;;;;;;3.67;78.47;99380.33;215249;1321;22670;-76
2021/11/16 17:22:53;;;;;;;81.20;40.40;;;;;;;3.62;78.72;99382.33;215119;1316;25258;-76
2021/11/16 17:27:56;;;;;;;77.70;39.60;;;;;;;3.57;78.82;99376.54;215115;1321;23105;-76
2021/11/16 17:33:08;;;;;;;77.80;39.00;;;;;;;3.51;78.80;99374.81;214708;1321;25551;-76
2021/11/16 17:38:30;;;;;;;74.00;39.70;;;;;;;3.45;79.07;99370.58;215116;1319;24187;-77
2021/11/16 17:43:38;;;;;;;78.90;39.70;;;;;;;3.44;79.26;99366.52;215150;1322;25281;-77
2021/11/16 17:48:41;;;;;;;83.50;41.30;;;;;;;3.45;79.39;99361.29;215166;1320;22781;-77
2021/11/16 17:53:44;;;;;;;89.10;43.50;;;;;;;3.43;79.49;99354.31;215179;1316;23308;-76
2021/11/16 17:58:47;;;;;;;97.30;45.50;;;;;;;3.38;79.39;99354.02;214935;1321;25372;-76
2021/11/16 18:04:01;;;;;;;92.50;44.20;;;;;;;3.26;79.30;99358.86;215228;1315;24215;-77
2021/11/16 18:09:10;;;;;;;88.90;41.80;;;;;;;3.15;79.44;99349.38;215021;1322;22714;-76
2021/11/16 18:14:16;;;;;;;89.40;41.00;;;;;;;3.07;79.78;99341.21;214909;1321;22730;-77
2021/11/16 18:19:20;;;;;;;92.50;40.30;;;;;;;3.00;80.02;99341.79;214812;1316;25252;-77
2021/11/16 18:24:24;;;;;;;86.90;37.70;;;;;;;2.97;80.33;99346.05;215366;1320;25354;-76
2021/11/16 18:29:30;;;;;;;86.90;39.30;;;;;;;3.09;81.02;99341.48;215092;1316;25363;-76
2021/11/16 18:34:33;;;;;;;78.90;35.20;;;;;;;3.24;81.09;99338.48;215176;1316;25349;-77
2021/11/16 18:39:45;;;;;;;82.60;35.10;;;;;;;3.35;80.99;99342.09;214776;1320;25365;-76
2021/11/16 18:45:22;;;;;;;82.70;34.60;;;;;;;3.50;81.45;99337.54;214751;1316;22618;-77
2021/11/16 18:50:20;;;;;;;74.90;33.80;;;;;;;3.68;81.56;99335.14;214641;1322;25440;-77
2021/11/16 18:55:31;;;;;;;74.70;34.80;;;;;;;3.81;81.68;99329.83;214775;1321;23173;-76
2021/11/16 19:00:34;;;;;;;79.30;35.10;;;;;;;3.92;81.55;99334.32;214750;1321;23115;-75
2021/11/16 19:05:37;;;;;;;73.20;34.70;;;;;;;4.00;81.49;99332.77;214678;1316;23249;-76
2021/11/16 19:10:42;;;;;;;76.90;34.60;;;;;;;4.03;81.22;99332.50;214822;1321;25488;-76
2021/11/16 19:15:47;;;;;;;74.50;33.30;;;;;;;4.06;81.32;99335.74;214879;1319;25242;-75
2021/11/16 19:20:52;;;;;;;66.00;31.10;;;;;;;4.08;81.30;99329.81;215223;1315;22526;-76
2021/11/16 19:25:58;;;;;;;69.90;30.80;;;;;;;4.09;81.16;99325.59;215165;1321;22673;-76
2021/11/16 19:31:04;;;;;;;64.10;30.90;;;;;;;4.11;81.18;99322.11;214906;1321;22647;-76
2021/11/16 19:36:09;;;;;;;65.30;31.90;;;;;;;4.12;81.17;99320.02;214989;1316;23110;-76
2021/11/16 19:41:12;;;;;;;71.10;31.90;;;;;;;4.11;81.25;99323.34;215071;1316;22900;-75
2021/11/16 19:46:15;;;;;;;71.20;33.80;;;;;;;4.12;81.10;99328.98;214812;1320;24217;-77
2021/11/16 19:51:19;;;;;;;69.20;33.70;;;;;;;4.11;81.20;99325.90;214818;1320;22617;-76
2021/11/16 19:56:22;;;;;;;70.40;33.50;;;;;;;4.11;81.15;99327.05;214745;1321;25336;-76
2021/11/16 20:01:25;;;;;;;69.00;33.50;;;;;;;4.10;80.94;99320.67;214621;1322;25373;-76
2021/11/16 20:06:28;;;;;;;69.00;32.10;;;;;;;4.05;81.00;99324.22;215251;1321;22830;-75
2021/11/16 20:11:34;;;;;;;70.60;34.80;;;;;;;4.02;81.13;99328.92;214866;1322;22574;-76
2021/11/16 20:16:39;;;;;;;70.70;32.70;;;;;;;4.03;81.21;99335.89;214940;1319;22608;-76
2021/11/16 20:21:48;;;;;;;64.30;30.20;;;;;;;4.06;81.40;99333.09;214773;1320;22740;-76
2021/11/16 20:26:52;;;;;;;57.70;27.30;;;;;;;4.09;81.34;99330.47;214842;1321;22660;-76
2021/11/16 20:32:00;;;;;;;52.20;28.40;;;;;;;4.09;81.13;99328.72;215016;1320;22672;-76
2021/11/16 20:37:03;;;;;;;67.90;30.40;;;;;;;4.09;81.07;99326.16;214976;1316;25281;-76
2021/11/16 21:02:58;;;;;;;55.10;26.20;;;;;;;4.02;80.63;99332.05;214984;1316;22769;-76
2021/11/16 21:08:01;;;;;;;53.90;26.10;;;;;;;3.86;80.55;99333.71;214931;1313;134616;-77
2021/11/16 21:13:04;;;;;;;52.30;26.10;;;;;;;3.70;80.66;99329.91;214843;1317;25465;-76
2021/11/16 21:18:08;;;;;;;57.10;27.60;;;;;;;3.62;80.97;99317.14;214827;1321;25353;-76
2021/11/16 21:23:10;;;;;;;60.40;26.70;;;;;;;3.59;81.23;99318.40;214932;1321;25223;-75
2021/11/16 21:28:15;;;;;;;52.60;27.30;;;;;;;3.64;81.36;99317.26;215012;1315;22530;-76
2021/11/16 21:33:26;;;;;;;48.70;23.50;;;;;;;3.67;81.56;99311.06;214749;1316;23835;-75
2021/11/16 21:38:29;;;;;;;52.10;24.90;;;;;;;3.67;81.30;99312.48;214844;1317;22625;-76
2021/11/16 21:43:47;;;;;;;48.10;23.50;;;;;;;3.64;81.42;99308.83;214903;1318;25320;-76
2021/11/16 21:49:05;;;;;;;56.00;26.10;;;;;;;3.64;81.43;99300.75;214919;1316;25914;-76
2021/11/16 21:54:09;;;;;;;46.90;23.60;;;;;;;3.62;81.41;99297.09;214901;1319;25230;-76
2021/11/16 21:59:13;;;;;;;45.00;23.10;;;;;;;3.58;81.17;99296.20;214893;1320;22793;-76
2021/11/16 22:04:24;;;;;;;44.60;23.00;;;;;;;3.49;81.03;99297.77;214938;1314;25249;-76
2021/11/16 22:09:29;;;;;;;47.60;25.30;;;;;;;3.46;81.45;99294.31;214997;1320;23399;-75
2021/11/16 22:14:32;;;;;;;42.40;22.80;;;;;;;3.42;81.57;99292.95;214946;1320;22910;-76
2021/11/16 22:19:35;;;;;;;44.40;23.20;;;;;;;3.42;81.75;99294.95;214751;1320;22594;-76
2021/11/16 22:24:38;;;;;;;39.70;21.20;;;;;;;3.37;81.56;99290.51;214835;1314;22612;-76
2021/11/16 22:29:41;;;;;;;44.20;21.80;;;;;;;3.32;81.54;99284.20;214719;1322;25370;-76
2021/11/16 22:35:02;;;;;;;40.20;21.20;;;;;;;3.29;81.57;99282.73;214918;1313;25494;-75
2021/11/16 22:40:21;;;;;;;37.80;19.80;;;;;;;3.29;81.79;99278.70;214892;1317;22716;-76
2021/11/16 22:45:28;;;;;;;42.50;21.70;;;;;;;3.26;81.90;99279.06;214671;1321;22648;-75
2021/11/16 22:50:33;;;;;;;39.20;20.70;;;;;;;3.26;82.05;99273.09;214855;1316;25469;-76
2021/11/16 22:55:35;;;;;;;43.30;21.20;;;;;;;3.26;82.02;99273.98;214939;1317;22556;-75
